Aérodrome :
LOGIN :

S'inscrire | Disclaimer

   EN    FR    IT 

 










Légende :    VFR   VFR Marginal   IFR   IFR Intensif   IFR Très Intensif
Visi : 
Plafond : 
>= 8 km
>= 3000ft
5 à 8 km
1000 à 3000 ft
1500m à 5 km
500 à 1000 ft
800 à 1500m
200 à 500 ft
< 800m
< 200 ft
Symboles :   Orages  Brouillard  Fortes neiges  Fortes précipitations  Vent > 20 kt
SIGMETs :   Divers  Orages  Givrage  Turbulence  Onde Orograph.  Cendres Volcan.






- Altitude de l'aérodrome : 76 ft
- Code IATA : KID


ESMK - Kristianstad

DERNIER METAR :
  • 211420Z 09006KT 9999 OVC006 11/10 Q1019

METARs EXPIRÉS :
  • 211350Z 09006KT 9999 OVC006 12/10 Q1019
  • 211320Z 08006KT 9999 OVC005 11/10 Q1019
  • 211250Z 08005KT 9999 BKN005 11/10 Q1019
  • 211220Z 09006KT 9999 BKN005 11/10 Q1019
  • 211150Z 11006KT 9999 BKN005 11/10 Q1020

TAF TAF ESMK
Valide du 21 à 15h jusqu'au 21 à 20h UTC


211401Z 2115/2120 06007KT 6000 -RADZ SCT006
TEMPO 2115/2118 4000 BR BKN006
BECMG 2118/2120 2000 BR BKN004



MET'MAP, la Météo Aéronautique d'un coup d'oeil ! - Copyright ORBIFLY Décembre 2007 - Disclaimer

ORBIFLY MET'MAP TEAM :

Programmation & Développement : Alexandra Zaïnal
Conception & Développement : Baudouin d'Aumeries
Co-Programmation & Développement : Marc-Olivier Méhu
Soutien technique & logistique : Manuel Goepfert

Contact : metmap@orbifly.com




SOURCES & CREDITS :

   NOAA